Aeroporto :
LOGIN :

Iscrizione | Disclaimer

   EN    FR    IT 

 










Sommario :    VFR   VFR Marginale   IFR   IFR Intensivo   IFR Molto Intensivo
Visibilità : 
Base nubi : 
>= 8 km
>= 3000ft
5 / 8 km
1000 / 3000 ft
1500m / 5 km
500 / 1000 ft
800 / 1500m
200 / 500 ft
< 800m
< 200 ft
Simboli :   Temporali  Nebbia  Neve Forte  Precipitazioni Forti  Vento > 20 kt
SIGMETs :   Varie  Temporali  Ghiacco  Turbolenza  Onda orograficha  Ceneri Vulcaniche






- Altitudine del aeroporto : 75 ft
- Codice IATA : MRH


EGYM - RAF Marham

ULTIMO METAR :
  • 121050Z 22015KT 7000 RA FEW015 SCT030 BKN040 05/03 Q0993 TEMPO 6000 -RADZ BKN007 RMK WHT TEMP GRN

METARs OBSOLETI :
  • 121039Z 22017KT 7000 RA FEW015 BKN040 05/03 Q0994 TEMPO 6000 -RADZ BKN007 RMK WHT TEMPO GRN
  • 121020Z 22017KT 9999 FEW015 BKN060 06/03 Q0994 BECMG OVC015 RMK BLU BECMG WHT
  • 120950Z 22016KT 9999 FEW045 SCT090 BKN100 06/03 Q0994 BECMG OVC015 RMK BLU BECMG WHT
  • 120920Z 22017KT 9999 FEW045 BKN100 05/02 Q0994 BECMG OVC015 RMK BLU BECMG WHT
  • 120850Z 22014KT CAVOK 04/02 Q0995 NOSIG RMK BLU BLU
  • 120822Z 21011KT CAVOK 03/02 Q0995 NOSIG RMK BLU BLU

TAF TAF EGYM
Valido dal 12 a 09 ore il 12 a 18 ore UTC


120805Z 1209/1218 25015G25KT 9999 FEW015 SCT070
BECMG 1210/1213 OVC015
TEMPO 1211/1218 6000 -RADZ BKN007
PROB30
TEMPO 1212/1215 4000 RADZ BKN005



MetMap, La meteo Aeronautica in un colpo d'occhio ! - Copyright ORBIFLY Dicembre 2007 - Disclaimer

ORBIFLY MET'MAP TEAM :

Programmazione e sviluppo : Alexandra Zaïnal
Concezione e sviluppo : Baudouin d'Aumeries
Co-Programmazione e sviluppo : Marc-Olivier Méhu
Supporto tecnico e logistico : Manuel Goepfert
Aiuto per la traduzione : Arnaldo La Scala

Contatto : metmap@orbifly.com




FONTI E CREDITI :

   NOAA